sensor_id;sensor_type;location;lat;lon;timestamp;pressure;altitude;pressure_sealevel;temperature;humidity
29239;BME280;16267;48.194;11.546;2023-03-22T00:00:53;95834.41;;;10.89;65.87
29239;BME280;16267;48.194;11.546;2023-03-22T00:03:22;95824.06;;;10.88;65.96
29239;BME280;16267;48.194;11.546;2023-03-22T00:05:48;95832.53;;;10.86;66.06
29239;BME280;16267;48.194;11.546;2023-03-22T00:08:16;95822.19;;;10.85;66.27
29239;BME280;16267;48.194;11.546;2023-03-22T00:10:58;95828.75;;;10.84;66.16
29239;BME280;16267;48.194;11.546;2023-03-22T00:13:24;95827.19;;;10.83;66.37
29239;BME280;16267;48.194;11.546;2023-03-22T00:15:50;95808.03;;;10.81;66.46
29239;BME280;16267;48.194;11.546;2023-03-22T00:18:16;95813.84;;;10.79;66.43
29239;BME280;16267;48.194;11.546;2023-03-22T00:20:55;95810.78;;;10.77;66.51
29239;BME280;16267;48.194;11.546;2023-03-22T00:23:22;95806.59;;;10.76;66.41
29239;BME280;16267;48.194;11.546;2023-03-22T00:25:49;95804.72;;;10.73;66.91
29239;BME280;16267;48.194;11.546;2023-03-22T00:28:15;95797.88;;;10.68;67.66
29239;BME280;16267;48.194;11.546;2023-03-22T00:30:54;95799.38;;;10.69;67.51
29239;BME280;16267;48.194;11.546;2023-03-22T00:33:30;95795.56;;;10.70;67.53
29239;BME280;16267;48.194;11.546;2023-03-22T00:36:04;95795.56;;;10.70;67.81
29239;BME280;16267;48.194;11.546;2023-03-22T00:38:30;95784.06;;;10.70;67.98
29239;BME280;16267;48.194;11.546;2023-03-22T00:41:18;95775.59;;;10.71;67.37
29239;BME280;16267;48.194;11.546;2023-03-22T00:43:48;95778.28;;;10.71;68.00
29239;BME280;16267;48.194;11.546;2023-03-22T00:46:16;95778.28;;;10.71;67.73
29239;BME280;16267;48.194;11.546;2023-03-22T00:48:43;95779.81;;;10.73;67.34
29239;BME280;16267;48.194;11.546;2023-03-22T00:51:09;95777.16;;;10.69;68.26
29239;BME280;16267;48.194;11.546;2023-03-22T00:53:36;95784.41;;;10.72;68.02
29239;BME280;16267;48.194;11.546;2023-03-22T00:56:03;95778.63;;;10.74;67.97
29239;BME280;16267;48.194;11.546;2023-03-22T00:58:30;95777.47;;;10.75;67.69
29239;BME280;16267;48.194;11.546;2023-03-22T01:00:55;95776.31;;;10.76;68.07
29239;BME280;16267;48.194;11.546;2023-03-22T01:03:21;95774.78;;;10.75;68.09
29239;BME280;16267;48.194;11.546;2023-03-22T01:05:51;95773.28;;;10.74;67.95
29239;BME280;16267;48.194;11.546;2023-03-22T01:08:21;95781.69;;;10.76;68.00
29239;BME280;16267;48.194;11.546;2023-03-22T01:10:48;95780.50;;;10.77;67.87
29239;BME280;16267;48.194;11.546;2023-03-22T01:13:15;95783.59;;;10.75;68.34
29239;BME280;16267;48.194;11.546;2023-03-22T01:15:40;95780.16;;;10.75;68.55
29239;BME280;16267;48.194;11.546;2023-03-22T01:18:07;95780.25;;;10.67;68.32
29239;BME280;16267;48.194;11.546;2023-03-22T01:20:36;95776.41;;;10.68;68.61
29239;BME280;16267;48.194;11.546;2023-03-22T01:23:02;95772.97;;;10.68;68.53
29239;BME280;16267;48.194;11.546;2023-03-22T01:25:28;95770.22;;;10.71;68.14
29239;BME280;16267;48.194;11.546;2023-03-22T01:27:55;95769.06;;;10.73;68.38
29239;BME280;16267;48.194;11.546;2023-03-22T01:30:20;95760.59;;;10.74;68.46
29239;BME280;16267;48.194;11.546;2023-03-22T01:32:46;95751.78;;;10.74;68.10
29239;BME280;16267;48.194;11.546;2023-03-22T01:35:12;95755.97;;;10.75;67.88
29239;BME280;16267;48.194;11.546;2023-03-22T01:37:38;95752.16;;;10.76;67.71
29239;BME280;16267;48.194;11.546;2023-03-22T01:40:05;95752.16;;;10.76;67.42
29239;BME280;16267;48.194;11.546;2023-03-22T01:42:31;95747.94;;;10.75;67.31
29239;BME280;16267;48.194;11.546;2023-03-22T01:47:57;95752.53;;;10.74;66.93
29239;BME280;16267;48.194;11.546;2023-03-22T01:50:25;95757.91;;;10.74;66.96
29239;BME280;16267;48.194;11.546;2023-03-22T01:52:52;95751.03;;;10.73;66.94
29239;BME280;16267;48.194;11.546;2023-03-22T01:55:22;95746.81;;;10.72;67.12
29239;BME280;16267;48.194;11.546;2023-03-22T01:57:50;95750.69;;;10.71;66.89
29239;BME280;16267;48.194;11.546;2023-03-22T02:00:17;95746.47;;;10.70;66.81
29239;BME280;16267;48.194;11.546;2023-03-22T02:02:49;95751.06;;;10.69;66.54
29239;BME280;16267;48.194;11.546;2023-03-22T02:05:17;95744.19;;;10.68;66.92
29239;BME280;16267;48.194;11.546;2023-03-22T02:07:44;95751.88;;;10.66;66.66
29239;BME280;16267;48.194;11.546;2023-03-22T02:10:21;95746.94;;;10.65;66.63
29239;BME280;16267;48.194;11.546;2023-03-22T02:13:31;95748.50;;;10.62;66.48
29239;BME280;16267;48.194;11.546;2023-03-22T02:16:06;95755.03;;;10.61;66.46
29239;BME280;16267;48.194;11.546;2023-03-22T02:38:27;95741.50;;;10.41;66.99
29239;BME280;16267;48.194;11.546;2023-03-22T02:44:08;95743.50;;;10.37;66.70
29239;BME280;16267;48.194;11.546;2023-03-22T02:49:55;95746.25;;;10.30;66.95
29239;BME280;16267;48.194;11.546;2023-03-22T02:52:47;95752.03;;;10.29;67.07
29239;BME280;16267;48.194;11.546;2023-03-22T02:55:33;95756.66;;;10.24;66.97
29239;BME280;16267;48.194;11.546;2023-03-22T02:58:11;95758.22;;;10.22;66.96
29239;BME280;16267;48.194;11.546;2023-03-22T03:00:48;95765.13;;;10.19;67.18
29239;BME280;16267;48.194;11.546;2023-03-22T03:03:16;95762.50;;;10.16;67.29
29239;BME280;16267;48.194;11.546;2023-03-22T03:05:54;95768.69;;;10.13;67.29
29239;BME280;16267;48.194;11.546;2023-03-22T03:08:21;95770.25;;;10.10;67.35
29239;BME280;16267;48.194;11.546;2023-03-22T03:10:49;95769.13;;;10.08;67.28
29239;BME280;16267;48.194;11.546;2023-03-22T03:13:17;95769.91;;;10.04;67.14
29239;BME280;16267;48.194;11.546;2023-03-22T03:15:50;95766.53;;;10.00;67.12
29239;BME280;16267;48.194;11.546;2023-03-22T03:18:49;95760.50;;;9.93;67.59
29239;BME280;16267;48.194;11.546;2023-03-22T03:21:25;95764.00;;;9.86;67.62
29239;BME280;16267;48.194;11.546;2023-03-22T03:27:31;95761.41;;;9.75;68.03
29239;BME280;16267;48.194;11.546;2023-03-22T03:30:12;95762.69;;;9.67;68.50
29239;BME280;16267;48.194;11.546;2023-03-22T03:32:50;95763.88;;;9.63;69.01
29239;BME280;16267;48.194;11.546;2023-03-22T03:35:35;95763.13;;;9.58;69.05
29239;BME280;16267;48.194;11.546;2023-03-22T03:40:40;95763.22;;;9.51;69.45
29239;BME280;16267;48.194;11.546;2023-03-22T03:43:08;95762.47;;;9.47;69.81
29239;BME280;16267;48.194;11.546;2023-03-22T03:45:43;95763.69;;;9.43;69.44
29239;BME280;16267;48.194;11.546;2023-03-22T03:48:19;95759.13;;;9.40;69.60
29239;BME280;16267;48.194;11.546;2023-03-22T03:50:48;95769.47;;;9.37;69.81
29239;BME280;16267;48.194;11.546;2023-03-22T03:53:15;95767.59;;;9.34;70.26
29239;BME280;16267;48.194;11.546;2023-03-22T03:55:41;95762.25;;;9.31;70.23
29239;BME280;16267;48.194;11.546;2023-03-22T03:58:10;95758.84;;;9.27;70.49
29239;BME280;16267;48.194;11.546;2023-03-22T04:00:36;95752.75;;;9.23;70.94
29239;BME280;16267;48.194;11.546;2023-03-22T04:03:05;95744.38;;;9.21;71.58
29239;BME280;16267;48.194;11.546;2023-03-22T04:05:31;95755.47;;;9.19;71.07
29239;BME280;16267;48.194;11.546;2023-03-22T04:07:57;95744.38;;;9.17;70.99
29239;BME280;16267;48.194;11.546;2023-03-22T04:10:22;95748.22;;;9.16;71.10
29239;BME280;16267;48.194;11.546;2023-03-22T04:12:48;95747.47;;;9.15;71.32
29239;BME280;16267;48.194;11.546;2023-03-22T04:15:14;95752.47;;;9.13;71.20
29239;BME280;16267;48.194;11.546;2023-03-22T04:17:40;95748.66;;;9.11;71.32
29239;BME280;16267;48.194;11.546;2023-03-22T04:20:08;95749.06;;;9.09;71.57
29239;BME280;16267;48.194;11.546;2023-03-22T04:22:36;95746.78;;;9.08;71.71
29239;BME280;16267;48.194;11.546;2023-03-22T04:25:11;95755.59;;;9.05;71.86
29239;BME280;16267;48.194;11.546;2023-03-22T04:27:39;95752.53;;;9.03;72.20
29239;BME280;16267;48.194;11.546;2023-03-22T04:30:09;95753.34;;;9.00;72.22
29239;BME280;16267;48.194;11.546;2023-03-22T04:32:37;95749.91;;;8.99;71.87
29239;BME280;16267;48.194;11.546;2023-03-22T04:35:04;95752.22;;;8.97;72.21
29239;BME280;16267;48.194;11.546;2023-03-22T04:37:30;95747.66;;;8.94;72.43
29239;BME280;16267;48.194;11.546;2023-03-22T04:39:57;95748.06;;;8.92;72.53
29239;BME280;16267;48.194;11.546;2023-03-22T04:42:24;95739.66;;;8.90;72.77
29239;BME280;16267;48.194;11.546;2023-03-22T04:44:50;95735.44;;;8.89;72.76
29239;BME280;16267;48.194;11.546;2023-03-22T04:47:16;95748.06;;;8.89;72.56
29239;BME280;16267;48.194;11.546;2023-03-22T04:49:58;95739.69;;;8.87;72.42
29239;BME280;16267;48.194;11.546;2023-03-22T04:52:23;95743.50;;;8.86;72.91
29239;BME280;16267;48.194;11.546;2023-03-22T04:54:49;95742.00;;;8.85;72.67
29239;BME280;16267;48.194;11.546;2023-03-22T04:57:15;95737.78;;;8.84;73.00
29239;BME280;16267;48.194;11.546;2023-03-22T04:59:41;95738.94;;;8.83;73.45
29239;BME280;16267;48.194;11.546;2023-03-22T05:02:06;95743.53;;;8.82;73.13
29239;BME280;16267;48.194;11.546;2023-03-22T05:04:32;95743.53;;;8.82;72.97
29239;BME280;16267;48.194;11.546;2023-03-22T05:06:58;95745.84;;;8.80;73.12
29239;BME280;16267;48.194;11.546;2023-03-22T05:09:34;95753.88;;;8.80;72.67
29239;BME280;16267;48.194;11.546;2023-03-22T05:11:59;95751.19;;;8.80;72.83
29239;BME280;16267;48.194;11.546;2023-03-22T05:14:25;95752.34;;;8.79;72.57
29239;BME280;16267;48.194;11.546;2023-03-22T05:16:51;95750.44;;;8.80;72.67
29239;BME280;16267;48.194;11.546;2023-03-22T05:19:17;95747.75;;;8.80;73.10
29239;BME280;16267;48.194;11.546;2023-03-22T05:21:47;95748.13;;;8.78;72.64
29239;BME280;16267;48.194;11.546;2023-03-22T05:24:13;95745.09;;;8.80;73.10
29239;BME280;16267;48.194;11.546;2023-03-22T05:26:48;95746.25;;;8.79;72.90
29239;BME280;16267;48.194;11.546;2023-03-22T05:29:18;95751.19;;;8.80;72.51
29239;BME280;16267;48.194;11.546;2023-03-22T05:31:44;95756.94;;;8.79;72.88
29239;BME280;16267;48.194;11.546;2023-03-22T05:34:10;95754.28;;;8.79;72.83
29239;BME280;16267;48.194;11.546;2023-03-22T05:36:36;95760.38;;;8.79;72.57
29239;BME280;16267;48.194;11.546;2023-03-22T05:39:03;95753.13;;;8.80;72.65
29239;BME280;16267;48.194;11.546;2023-03-22T05:41:28;95750.44;;;8.80;72.64
29239;BME280;16267;48.194;11.546;2023-03-22T05:43:59;95753.88;;;8.80;72.71
29239;BME280;16267;48.194;11.546;2023-03-22T05:46:24;95753.88;;;8.80;72.53
29239;BME280;16267;48.194;11.546;2023-03-22T05:48:50;95754.63;;;8.81;72.77
29239;BME280;16267;48.194;11.546;2023-03-22T05:51:17;95754.25;;;8.82;73.22
29239;BME280;16267;48.194;11.546;2023-03-22T05:53:47;95750.06;;;8.81;73.05
29239;BME280;16267;48.194;11.546;2023-03-22T05:56:14;95750.81;;;8.82;73.37
29239;BME280;16267;48.194;11.546;2023-03-22T05:58:40;95746.97;;;8.83;73.33
29239;BME280;16267;48.194;11.546;2023-03-22T06:01:11;95754.63;;;8.84;73.47
29239;BME280;16267;48.194;11.546;2023-03-22T06:03:38;95748.84;;;8.86;73.47
29239;BME280;16267;48.194;11.546;2023-03-22T06:06:05;95749.59;;;8.86;73.16
29239;BME280;16267;48.194;11.546;2023-03-22T06:08:58;95753.41;;;8.89;73.37
29239;BME280;16267;48.194;11.546;2023-03-22T06:11:23;95753.00;;;8.94;73.87
29239;BME280;16267;48.194;11.546;2023-03-22T06:13:49;95747.59;;;8.98;73.82
29239;BME280;16267;48.194;11.546;2023-03-22T06:16:15;95754.47;;;9.02;73.55
29239;BME280;16267;48.194;11.546;2023-03-22T06:18:40;95754.44;;;9.06;73.92
29239;BME280;16267;48.194;11.546;2023-03-22T06:21:06;95747.91;;;9.10;73.75
29239;BME280;16267;48.194;11.546;2023-03-22T06:23:32;95754.00;;;9.14;73.77
29239;BME280;16267;48.194;11.546;2023-03-22T06:25:58;95758.53;;;9.21;74.39
29239;BME280;16267;48.194;11.546;2023-03-22T06:28:24;95753.53;;;9.23;74.54
29239;BME280;16267;48.194;11.546;2023-03-22T06:30:54;95748.84;;;9.31;75.21
29239;BME280;16267;48.194;11.546;2023-03-22T06:33:20;95751.84;;;9.40;75.46
29239;BME280;16267;48.194;11.546;2023-03-22T06:35:46;95750.31;;;9.39;73.26
29239;BME280;16267;48.194;11.546;2023-03-22T06:38:11;95743.38;;;9.45;72.88
29239;BME280;16267;48.194;11.546;2023-03-22T06:40:37;95748.66;;;9.52;72.94
29239;BME280;16267;48.194;11.546;2023-03-22T06:43:03;95748.28;;;9.54;71.09
29239;BME280;16267;48.194;11.546;2023-03-22T06:45:29;95748.19;;;9.61;71.05
29239;BME280;16267;48.194;11.546;2023-03-22T06:47:58;95760.28;;;9.76;71.23
29239;BME280;16267;48.194;11.546;2023-03-22T06:50:24;95755.16;;;9.89;70.65
29239;BME280;16267;48.194;11.546;2023-03-22T06:52:50;95755.50;;;9.91;68.63
29239;BME280;16267;48.194;11.546;2023-03-22T06:55:15;95754.63;;;10.01;67.98
29239;BME280;16267;48.194;11.546;2023-03-22T06:57:43;95764.44;;;10.15;69.14
29239;BME280;16267;48.194;11.546;2023-03-22T07:00:10;95768.47;;;10.31;68.82
29239;BME280;16267;48.194;11.546;2023-03-22T07:02:36;95765.25;;;10.43;67.67
29239;BME280;16267;48.194;11.546;2023-03-22T07:05:01;95762.78;;;10.56;68.59
29239;BME280;16267;48.194;11.546;2023-03-22T07:07:27;95766.47;;;10.65;67.90
29239;BME280;16267;48.194;11.546;2023-03-22T07:09:53;95766.72;;;10.75;68.04
29239;BME280;16267;48.194;11.546;2023-03-22T07:12:19;95768.09;;;10.86;67.69
29239;BME280;16267;48.194;11.546;2023-03-22T07:14:45;95769.09;;;10.96;66.12
29239;BME280;16267;48.194;11.546;2023-03-22T07:17:10;95770.91;;;11.03;65.86
29239;BME280;16267;48.194;11.546;2023-03-22T07:19:38;95776.09;;;11.13;65.58
29239;BME280;16267;48.194;11.546;2023-03-22T07:22:05;95772.56;;;11.20;65.34
29239;BME280;16267;48.194;11.546;2023-03-22T07:24:31;95763.22;;;11.28;64.13
29239;BME280;16267;48.194;11.546;2023-03-22T07:26:56;95763.97;;;11.29;63.16
29239;BME280;16267;48.194;11.546;2023-03-22T07:29:22;95759.94;;;11.41;63.97
29239;BME280;16267;48.194;11.546;2023-03-22T07:31:48;95770.16;;;11.49;62.62
29239;BME280;16267;48.194;11.546;2023-03-22T07:34:13;95763.63;;;11.50;62.54
29239;BME280;16267;48.194;11.546;2023-03-22T07:36:40;95769.19;;;11.59;61.72
29239;BME280;16267;48.194;11.546;2023-03-22T07:39:06;95760.53;;;11.72;62.11
29239;BME280;16267;48.194;11.546;2023-03-22T07:41:32;95759.53;;;11.86;62.61
29239;BME280;16267;48.194;11.546;2023-03-22T07:43:58;95756.22;;;11.98;62.06
29239;BME280;16267;48.194;11.546;2023-03-22T07:46:25;95756.44;;;12.07;62.06
29239;BME280;16267;48.194;11.546;2023-03-22T07:48:51;95765.13;;;12.15;60.69
29239;BME280;16267;48.194;11.546;2023-03-22T07:51:17;95762.13;;;12.29;61.36
29239;BME280;16267;48.194;11.546;2023-03-22T07:53:43;95762.00;;;12.36;60.55
29239;BME280;16267;48.194;11.546;2023-03-22T07:56:09;95759.41;;;12.49;60.97
29239;BME280;16267;48.194;11.546;2023-03-22T07:58:35;95763.06;;;12.59;59.57
29239;BME280;16267;48.194;11.546;2023-03-22T08:01:08;95772.06;;;12.68;58.46
29239;BME280;16267;48.194;11.546;2023-03-22T08:03:35;95757.09;;;12.84;59.33
29239;BME280;16267;48.194;11.546;2023-03-22T08:06:03;95763.41;;;12.93;57.99
29239;BME280;16267;48.194;11.546;2023-03-22T08:08:35;95763.31;;;13.13;59.34
29239;BME280;16267;48.194;11.546;2023-03-22T08:11:05;95760.25;;;13.31;60.55
29239;BME280;16267;48.194;11.546;2023-03-22T08:13:31;95765.78;;;13.41;58.53
29239;BME280;16267;48.194;11.546;2023-03-22T08:15:58;95757.19;;;13.46;56.62
29239;BME280;16267;48.194;11.546;2023-03-22T08:18:23;95764.16;;;13.59;58.29
29239;BME280;16267;48.194;11.546;2023-03-22T08:20:58;95762.66;;;13.58;57.12
29239;BME280;16267;48.194;11.546;2023-03-22T08:23:26;95763.88;;;13.70;56.69
29239;BME280;16267;48.194;11.546;2023-03-22T08:25:52;95756.16;;;13.85;56.94
29239;BME280;16267;48.194;11.546;2023-03-22T08:28:19;95759.00;;;13.94;55.83
29239;BME280;16267;48.194;11.546;2023-03-22T08:30:47;95756.66;;;14.09;56.51
29239;BME280;16267;48.194;11.546;2023-03-22T08:33:14;95758.63;;;14.21;54.75
29239;BME280;16267;48.194;11.546;2023-03-22T08:35:41;95760.94;;;14.36;54.69
29239;BME280;16267;48.194;11.546;2023-03-22T08:38:07;95761.06;;;14.45;53.52
29239;BME280;16267;48.194;11.546;2023-03-22T08:40:33;95760.44;;;14.54;53.31
29239;BME280;16267;48.194;11.546;2023-03-22T08:42:59;95753.31;;;14.72;53.93
29239;BME280;16267;48.194;11.546;2023-03-22T08:45:26;95747.47;;;14.87;53.34
29239;BME280;16267;48.194;11.546;2023-03-22T08:47:52;95748.22;;;14.87;51.70
29239;BME280;16267;48.194;11.546;2023-03-22T08:50:18;95741.00;;;14.97;51.90
29239;BME280;16267;48.194;11.546;2023-03-22T08:52:44;95743.56;;;15.13;52.85
29239;BME280;16267;48.194;11.546;2023-03-22T08:55:10;95736.94;;;15.27;51.78
29239;BME280;16267;48.194;11.546;2023-03-22T08:57:36;95746.94;;;15.39;51.19
29239;BME280;16267;48.194;11.546;2023-03-22T09:00:05;95741.75;;;15.45;50.80
29239;BME280;16267;48.194;11.546;2023-03-22T09:02:31;95742.06;;;15.47;50.12
29239;BME280;16267;48.194;11.546;2023-03-22T09:04:57;95742.13;;;15.56;50.16
29239;BME280;16267;48.194;11.546;2023-03-22T09:07:26;95741.44;;;15.65;48.55
29239;BME280;16267;48.194;11.546;2023-03-22T09:09:52;95741.56;;;15.74;48.62
29239;BME280;16267;48.194;11.546;2023-03-22T09:12:18;95734.97;;;15.75;47.17
29239;BME280;16267;48.194;11.546;2023-03-22T09:14:43;95735.97;;;15.69;45.77
29239;BME280;16267;48.194;11.546;2023-03-22T09:17:11;95732.81;;;15.70;46.23
29239;BME280;16267;48.194;11.546;2023-03-22T09:19:37;95734.97;;;15.75;46.07
29239;BME280;16267;48.194;11.546;2023-03-22T09:22:02;95734.44;;;15.90;46.66
29239;BME280;16267;48.194;11.546;2023-03-22T09:24:28;95723.94;;;15.92;45.45
29239;BME280;16267;48.194;11.546;2023-03-22T09:26:54;95729.09;;;15.99;46.02
29239;BME280;16267;48.194;11.546;2023-03-22T09:29:20;95722.13;;;16.11;45.66
29239;BME280;16267;48.194;11.546;2023-03-22T09:31:46;95715.53;;;16.21;45.67
29239;BME280;16267;48.194;11.546;2023-03-22T09:34:13;95722.59;;;16.18;44.94
29239;BME280;16267;48.194;11.546;2023-03-22T09:36:39;95714.56;;;16.37;46.48
29239;BME280;16267;48.194;11.546;2023-03-22T09:39:05;95711.06;;;16.27;44.42
29239;BME280;16267;48.194;11.546;2023-03-22T09:41:40;95696.84;;;16.45;44.54
29239;BME280;16267;48.194;11.546;2023-03-22T09:44:23;95698.53;;;16.51;44.94
29239;BME280;16267;48.194;11.546;2023-03-22T09:46:54;95704.13;;;16.57;44.81
29239;BME280;16267;48.194;11.546;2023-03-22T09:49:26;95700.41;;;16.73;45.58
29239;BME280;16267;48.194;11.546;2023-03-22T09:51:54;95705.81;;;16.64;43.17
29239;BME280;16267;48.194;11.546;2023-03-22T09:54:33;95694.75;;;16.80;44.79
29239;BME280;16267;48.194;11.546;2023-03-22T09:57:05;95708.44;;;16.77;43.81
29239;BME280;16267;48.194;11.546;2023-03-22T10:08:36;95685.47;;;17.09;42.84
29239;BME280;16267;48.194;11.546;2023-03-22T10:11:56;95683.22;;;17.26;44.24
29239;BME280;16267;48.194;11.546;2023-03-22T10:16:59;95673.28;;;17.23;41.47
29239;BME280;16267;48.194;11.546;2023-03-22T10:19:42;95677.66;;;17.29;41.26
29239;BME280;16267;48.194;11.546;2023-03-22T10:22:16;95665.44;;;17.15;41.31
29239;BME280;16267;48.194;11.546;2023-03-22T10:24:45;95667.84;;;17.23;42.05
29239;BME280;16267;48.194;11.546;2023-03-22T10:27:19;95670.28;;;17.30;42.15
29239;BME280;16267;48.194;11.546;2023-03-22T10:29:51;95668.00;;;17.37;41.76
29239;BME280;16267;48.194;11.546;2023-03-22T10:32:44;95667.56;;;17.39;40.93
29239;BME280;16267;48.194;11.546;2023-03-22T10:35:14;95666.63;;;17.51;41.06
29239;BME280;16267;48.194;11.546;2023-03-22T10:37:40;95660.75;;;17.62;41.39
29239;BME280;16267;48.194;11.546;2023-03-22T10:40:19;95661.22;;;17.79;40.96
29239;BME280;16267;48.194;11.546;2023-03-22T10:42:56;95652.63;;;17.80;39.38
29239;BME280;16267;48.194;11.546;2023-03-22T10:45:24;95658.63;;;17.94;40.64
29239;BME280;16267;48.194;11.546;2023-03-22T10:48:08;95656.94;;;18.05;39.87
29239;BME280;16267;48.194;11.546;2023-03-22T10:50:41;95653.13;;;18.12;39.05
29239;BME280;16267;48.194;11.546;2023-03-22T10:56:02;95653.97;;;18.37;40.71
29239;BME280;16267;48.194;11.546;2023-03-22T10:58:31;95659.53;;;18.42;39.05
29239;BME280;16267;48.194;11.546;2023-03-22T11:01:07;95659.69;;;18.39;38.47
29239;BME280;16267;48.194;11.546;2023-03-22T11:03:40;95651.22;;;18.46;38.94
29239;BME280;16267;48.194;11.546;2023-03-22T11:11:31;95643.53;;;18.78;38.98
29239;BME280;16267;48.194;11.546;2023-03-22T11:14:09;95646.06;;;18.81;37.91
29239;BME280;16267;48.194;11.546;2023-03-22T11:19:49;95643.66;;;18.83;37.96
29239;BME280;16267;48.194;11.546;2023-03-22T11:22:46;95638.09;;;19.02;37.30
29239;BME280;16267;48.194;11.546;2023-03-22T11:25:30;95649.03;;;18.92;36.69
29239;BME280;16267;48.194;11.546;2023-03-22T11:30:30;95646.25;;;19.02;37.19
29239;BME280;16267;48.194;11.546;2023-03-22T11:33:19;95636.56;;;19.25;37.47
29239;BME280;16267;48.194;11.546;2023-03-22T11:35:52;95636.03;;;19.35;37.29
29239;BME280;16267;48.194;11.546;2023-03-22T11:38:41;95628.31;;;19.34;37.34
29239;BME280;16267;48.194;11.546;2023-03-22T11:41:23;95623.66;;;19.49;37.24
29239;BME280;16267;48.194;11.546;2023-03-22T11:43:54;95616.94;;;19.59;36.85
29239;BME280;16267;48.194;11.546;2023-03-22T11:46:21;95620.34;;;19.69;38.29
29239;BME280;16267;48.194;11.546;2023-03-22T11:48:50;95608.56;;;19.63;37.41
29239;BME280;16267;48.194;11.546;2023-03-22T11:51:37;95607.47;;;19.85;39.74
29239;BME280;16267;48.194;11.546;2023-03-22T11:54:32;95605.97;;;19.98;38.43
29239;BME280;16267;48.194;11.546;2023-03-22T11:57:03;95604.06;;;20.04;38.92
29239;BME280;16267;48.194;11.546;2023-03-22T11:59:38;95601.97;;;20.14;39.44
29239;BME280;16267;48.194;11.546;2023-03-22T12:03:04;95599.25;;;20.14;37.98
29239;BME280;16267;48.194;11.546;2023-03-22T12:05:19;95590.41;;;20.19;37.93
29239;BME280;16267;48.194;11.546;2023-03-22T12:07:47;95586.00;;;20.22;37.57
29239;BME280;16267;48.194;11.546;2023-03-22T12:10:24;95581.38;;;20.28;37.37
29239;BME280;16267;48.194;11.546;2023-03-22T12:13:04;95583.22;;;20.37;39.50
29239;BME280;16267;48.194;11.546;2023-03-22T12:15:37;95570.16;;;20.41;39.00
29239;BME280;16267;48.194;11.546;2023-03-22T12:20:56;95565.19;;;20.39;37.30
29239;BME280;16267;48.194;11.546;2023-03-22T12:23:31;95561.78;;;20.44;38.31
29239;BME280;16267;48.194;11.546;2023-03-22T12:26:19;95560.06;;;20.26;35.60
29239;BME280;16267;48.194;11.546;2023-03-22T12:29:13;95567.84;;;20.34;36.75
29239;BME280;16267;48.194;11.546;2023-03-22T12:32:23;95559.88;;;20.30;36.92
29239;BME280;16267;48.194;11.546;2023-03-22T12:34:50;95548.00;;;20.33;37.01
29239;BME280;16267;48.194;11.546;2023-03-22T12:37:30;95549.53;;;20.34;34.92
29239;BME280;16267;48.194;11.546;2023-03-22T12:42:40;95539.69;;;20.42;36.55
29239;BME280;16267;48.194;11.546;2023-03-22T12:45:21;95538.88;;;20.36;35.26
29239;BME280;16267;48.194;11.546;2023-03-22T12:53:16;95536.06;;;20.10;34.83
29239;BME280;16267;48.194;11.546;2023-03-22T12:55:44;95528.78;;;20.22;35.64
29239;BME280;16267;48.194;11.546;2023-03-22T12:58:22;95522.94;;;20.29;35.69
29239;BME280;16267;48.194;11.546;2023-03-22T13:00:58;95523.19;;;20.31;35.44
29239;BME280;16267;48.194;11.546;2023-03-22T13:03:35;95510.41;;;20.37;35.53
29239;BME280;16267;48.194;11.546;2023-03-22T13:06:33;95514.84;;;20.35;34.98
29239;BME280;16267;48.194;11.546;2023-03-22T13:09:46;95502.34;;;20.28;33.08
29239;BME280;16267;48.194;11.546;2023-03-22T13:15:55;95502.16;;;20.32;33.02
29239;BME280;16267;48.194;11.546;2023-03-22T13:17:48;95507.34;;;20.30;32.88
29239;BME280;16267;48.194;11.546;2023-03-22T13:25:23;95507.00;;;20.22;32.46
29239;BME280;16267;48.194;11.546;2023-03-22T13:30:56;95504.81;;;20.26;33.34
29239;BME280;16267;48.194;11.546;2023-03-22T13:33:34;95493.38;;;20.22;32.81
29239;BME280;16267;48.194;11.546;2023-03-22T13:36:06;95490.47;;;19.90;31.74
29239;BME280;16267;48.194;11.546;2023-03-22T13:38:58;95494.28;;;19.98;33.16
29239;BME280;16267;48.194;11.546;2023-03-22T13:41:32;95493.41;;;20.07;33.92
29239;BME280;16267;48.194;11.546;2023-03-22T13:44:39;95482.25;;;20.05;33.11
29239;BME280;16267;48.194;11.546;2023-03-22T13:47:08;95493.44;;;19.92;32.83
29239;BME280;16267;48.194;11.546;2023-03-22T13:49:59;95484.69;;;20.03;34.14
29239;BME280;16267;48.194;11.546;2023-03-22T13:52:39;95477.09;;;20.07;33.61
29239;BME280;16267;48.194;11.546;2023-03-22T13:58:10;95484.16;;;19.99;32.60
29239;BME280;16267;48.194;11.546;2023-03-22T14:00:39;95480.03;;;19.89;32.09
29239;BME280;16267;48.194;11.546;2023-03-22T14:03:16;95478.13;;;19.95;33.57
29239;BME280;16267;48.194;11.546;2023-03-22T14:05:47;95478.22;;;20.00;32.69
29239;BME280;16267;48.194;11.546;2023-03-22T14:08:25;95473.53;;;20.01;33.88
29239;BME280;16267;48.194;11.546;2023-03-22T14:11:28;95473.72;;;19.97;33.72
29239;BME280;16267;48.194;11.546;2023-03-22T14:14:14;95478.78;;;19.90;33.13
29239;BME280;16267;48.194;11.546;2023-03-22T14:16:49;95456.84;;;19.93;33.56
29239;BME280;16267;48.194;11.546;2023-03-22T14:19:23;95465.81;;;19.99;33.96
29239;BME280;16267;48.194;11.546;2023-03-22T14:21:53;95459.50;;;20.08;34.84
29239;BME280;16267;48.194;11.546;2023-03-22T14:24:22;95464.66;;;20.06;34.50
29239;BME280;16267;48.194;11.546;2023-03-22T14:26:53;95459.56;;;20.14;34.19
29239;BME280;16267;48.194;11.546;2023-03-22T14:29:22;95449.03;;;20.21;34.18
29239;BME280;16267;48.194;11.546;2023-03-22T14:32:03;95448.28;;;20.21;33.16
29239;BME280;16267;48.194;11.546;2023-03-22T14:34:34;95446.38;;;20.27;33.37
29239;BME280;16267;48.194;11.546;2023-03-22T14:37:04;95446.03;;;20.19;31.88
29239;BME280;16267;48.194;11.546;2023-03-22T14:39:42;95444.53;;;20.18;32.37